createdAt,value
2023-04-13T00:02:02.130Z,5.62
2023-04-13T00:04:31.216Z,5.43
2023-04-13T00:07:04.297Z,5.50
2023-04-13T00:12:36.560Z,5.40
2023-04-13T00:15:25.784Z,4.53
2023-04-13T00:17:54.025Z,5.12
2023-04-13T00:20:20.730Z,5.50
2023-04-13T00:22:48.902Z,4.97
2023-04-13T00:25:16.694Z,4.62
2023-04-13T00:27:44.166Z,4.47
2023-04-13T00:30:30.315Z,4.68
2023-04-13T00:32:56.939Z,4.80
2023-04-13T00:35:48.566Z,4.65
2023-04-13T00:38:15.225Z,4.68
2023-04-13T00:41:26.008Z,4.32
2023-04-13T00:44:15.936Z,4.20
2023-04-13T00:46:42.952Z,5.10
2023-04-13T00:49:09.615Z,4.15
2023-04-13T00:51:36.223Z,4.68
2023-04-13T00:54:02.823Z,4.75
2023-04-13T00:56:29.519Z,4.40
2023-04-13T01:01:31.342Z,4.68
2023-04-13T01:03:58.394Z,4.53
2023-04-13T01:06:31.939Z,4.15
2023-04-13T01:09:54.466Z,4.60
2023-04-13T01:13:31.894Z,4.37
2023-04-13T01:16:12.001Z,4.18
2023-04-13T01:18:41.792Z,4.10
2023-04-13T01:21:13.211Z,3.70
2023-04-13T01:24:01.512Z,4.20
2023-04-13T01:26:53.325Z,4.40
2023-04-13T01:31:56.464Z,4.57
2023-04-13T01:34:25.212Z,4.18
2023-04-13T01:36:53.056Z,4.50
2023-04-13T01:43:19.534Z,4.87
2023-04-13T01:45:55.659Z,5.03
2023-04-13T01:48:48.763Z,4.40
2023-04-13T01:51:24.942Z,4.40
2023-04-13T01:54:12.844Z,4.35
2023-04-13T01:56:40.727Z,4.43
2023-04-13T02:01:43.278Z,4.78
2023-04-13T02:04:20.808Z,4.70
2023-04-13T02:06:48.328Z,4.65
2023-04-13T02:09:48.911Z,4.70
2023-04-13T02:12:25.750Z,4.80
2023-04-13T02:14:52.280Z,4.22
2023-04-13T02:17:18.814Z,4.85
2023-04-13T02:19:46.974Z,5.03
2023-04-13T02:22:13.518Z,4.60
2023-04-13T02:24:40.494Z,4.72
2023-04-13T02:29:57.420Z,4.60
2023-04-13T02:32:24.538Z,4.47
2023-04-13T02:37:26.552Z,4.75
2023-04-13T02:43:35.707Z,5.15
2023-04-13T02:46:02.445Z,4.82
2023-04-13T02:48:29.299Z,4.72
2023-04-13T02:50:55.966Z,4.12
2023-04-13T02:53:23.490Z,4.97
2023-04-13T02:55:54.064Z,4.72
2023-04-13T02:58:41.789Z,4.78
2023-04-13T03:01:08.424Z,4.57
2023-04-13T03:03:35.102Z,5.25
2023-04-13T03:06:01.904Z,5.12
2023-04-13T03:09:16.219Z,5.05
2023-04-13T03:12:11.114Z,5.35
2023-04-13T03:14:37.649Z,5.20
2023-04-13T03:17:04.845Z,5.97
2023-04-13T03:19:31.983Z,6.30
2023-04-13T03:21:58.826Z,5.90
2023-04-13T03:24:27.535Z,6.30
2023-04-13T03:29:42.979Z,5.35
2023-04-13T03:32:09.585Z,5.85
2023-04-13T03:34:36.250Z,6.00
2023-04-13T03:43:25.515Z,6.53
2023-04-13T03:45:52.443Z,6.87
2023-04-13T03:48:19.565Z,6.90
2023-04-13T03:50:46.230Z,6.18
2023-04-13T03:53:12.786Z,7.05
2023-04-13T03:55:39.445Z,6.60
2023-04-13T04:00:54.999Z,5.43
2023-04-13T04:03:22.646Z,6.70
2023-04-13T04:05:49.425Z,6.30
2023-04-13T04:08:49.692Z,6.28
2023-04-13T04:11:41.628Z,6.22
2023-04-13T04:14:08.172Z,6.43
2023-04-13T04:16:34.705Z,24.52
2023-04-13T04:19:01.660Z,18.23
2023-04-13T04:21:34.417Z,17.20
2023-04-13T04:24:06.204Z,19.48
2023-04-13T04:26:41.621Z,8.93
2023-04-13T04:29:08.920Z,19.80
2023-04-13T04:31:37.525Z,5.12
2023-04-13T04:34:04.523Z,5.87
2023-04-13T04:37:20.803Z,4.93
2023-04-13T04:40:22.700Z,5.18
2023-04-13T04:42:49.342Z,4.75
2023-04-13T04:45:16.728Z,4.65
2023-04-13T04:47:43.839Z,4.60
2023-04-13T04:50:12.479Z,4.87
2023-04-13T04:52:40.226Z,4.45
2023-04-13T04:55:07.886Z,4.95
2023-04-13T04:57:34.598Z,4.70
2023-04-13T05:00:16.863Z,5.03
2023-04-13T05:02:44.437Z,5.57
2023-04-13T05:05:11.944Z,5.30
2023-04-13T05:07:38.562Z,5.03
2023-04-13T05:10:07.376Z,5.60
2023-04-13T05:12:35.330Z,4.90
2023-04-13T05:15:04.236Z,6.20
2023-04-13T05:17:30.990Z,8.30
2023-04-13T05:19:57.580Z,7.62
2023-04-13T05:22:24.153Z,7.20
2023-04-13T05:24:50.842Z,6.50
2023-04-13T05:27:17.575Z,7.10
2023-04-13T05:29:46.947Z,6.72
2023-04-13T05:32:14.206Z,8.00
2023-04-13T05:34:40.816Z,8.50
2023-04-13T05:37:07.682Z,8.63
2023-04-13T05:39:34.387Z,7.15
2023-04-13T05:42:01.850Z,5.60
2023-04-13T05:44:28.423Z,5.37
2023-04-13T05:46:55.010Z,5.78
2023-04-13T05:49:21.644Z,5.60
2023-04-13T05:51:48.388Z,5.55
2023-04-13T05:54:15.012Z,5.72
2023-04-13T05:56:41.739Z,5.22
2023-04-13T05:59:08.791Z,5.05
2023-04-13T06:01:36.508Z,4.70
2023-04-13T06:04:03.701Z,6.50
2023-04-13T06:06:30.653Z,5.50
2023-04-13T06:08:57.569Z,6.12
2023-04-13T06:11:25.903Z,6.43
2023-04-13T06:13:52.477Z,5.97
2023-04-13T06:16:19.129Z,6.50
2023-04-13T06:18:45.931Z,4.97
2023-04-13T06:21:12.574Z,5.37
2023-04-13T06:23:39.209Z,4.82
2023-04-13T06:26:06.897Z,4.30
2023-04-13T06:28:33.649Z,4.35
2023-04-13T06:31:00.484Z,4.40
2023-04-13T06:33:27.867Z,4.87
2023-04-13T06:35:54.481Z,4.68
2023-04-13T06:38:21.120Z,5.43
2023-04-13T06:41:09.664Z,5.55
2023-04-13T06:43:37.058Z,5.03
2023-04-13T06:46:04.429Z,5.35
2023-04-13T06:48:31.508Z,5.30
2023-04-13T06:54:59.948Z,5.10
2023-04-13T06:57:26.699Z,5.62
2023-04-13T06:59:53.293Z,5.43
2023-04-13T07:02:20.243Z,5.47
2023-04-13T07:04:47.124Z,5.37
2023-04-13T07:07:14.206Z,5.80
2023-04-13T07:09:41.558Z,5.25
2023-04-13T07:12:08.247Z,5.50
2023-04-13T07:14:39.204Z,5.97
2023-04-13T07:17:06.150Z,5.22
2023-04-13T07:19:34.412Z,5.43
2023-04-13T07:22:02.256Z,5.50
2023-04-13T07:24:30.111Z,5.43
2023-04-13T07:26:57.685Z,4.55
2023-04-13T07:29:27.320Z,4.30
2023-04-13T07:32:00.735Z,4.97
2023-04-13T07:34:27.662Z,5.10
2023-04-13T07:36:54.543Z,4.93
2023-04-13T07:39:21.412Z,4.70
2023-04-13T07:41:48.560Z,5.30
2023-04-13T07:44:15.410Z,5.20
2023-04-13T07:46:42.118Z,4.32
2023-04-13T07:49:08.757Z,4.55
2023-04-13T07:51:35.756Z,4.60
2023-04-13T07:54:03.038Z,4.43
2023-04-13T07:56:51.548Z,4.03
2023-04-13T07:59:18.108Z,3.97
2023-04-13T08:01:44.694Z,4.05
2023-04-13T08:04:11.891Z,3.72
2023-04-13T08:07:11.853Z,3.85
2023-04-13T08:10:00.780Z,3.90
2023-04-13T08:12:27.347Z,3.62
2023-04-13T08:14:54.300Z,2.90
2023-04-13T08:17:21.941Z,3.83
2023-04-13T08:19:48.762Z,3.70
2023-04-13T08:22:15.484Z,4.40
2023-04-13T08:24:42.071Z,3.95
2023-04-13T08:27:08.691Z,5.53
2023-04-13T08:29:35.306Z,3.55
2023-04-13T08:32:02.064Z,3.47
2023-04-13T08:34:28.720Z,3.60
2023-04-13T08:36:55.279Z,3.50
2023-04-13T08:39:22.194Z,3.40
2023-04-13T08:41:49.006Z,3.87
2023-04-13T08:44:15.844Z,3.65
2023-04-13T08:46:45.433Z,3.40
2023-04-13T08:49:13.115Z,2.92
2023-04-13T08:51:43.556Z,3.78
2023-04-13T08:54:12.841Z,4.20
2023-04-13T08:56:46.104Z,3.47
2023-04-13T08:59:16.142Z,4.00
2023-04-13T09:01:46.649Z,3.72
2023-04-13T09:04:18.193Z,4.05
2023-04-13T09:06:47.931Z,3.83
2023-04-13T09:09:15.012Z,3.78
2023-04-13T09:11:43.184Z,3.70
2023-04-13T09:14:10.483Z,3.08
2023-04-13T09:16:41.977Z,2.80
2023-04-13T09:19:09.545Z,2.90
2023-04-13T09:21:41.402Z,2.62
2023-04-13T09:24:08.521Z,2.40
2023-04-13T09:26:42.602Z,2.85
2023-04-13T09:29:21.843Z,3.28
2023-04-13T09:31:48.622Z,3.10
2023-04-13T09:34:27.109Z,2.92
2023-04-13T09:36:56.616Z,3.22
2023-04-13T09:39:28.805Z,3.12
2023-04-13T09:41:56.213Z,2.95
2023-04-13T09:44:28.542Z,2.90
2023-04-13T09:46:59.055Z,2.85
2023-04-13T09:49:26.286Z,3.20
2023-04-13T09:51:56.174Z,2.90
2023-04-13T09:54:22.890Z,2.97
2023-04-13T09:56:55.746Z,2.97
2023-04-13T10:01:52.647Z,2.97
2023-04-13T10:04:19.524Z,2.80
2023-04-13T10:06:47.876Z,2.80
2023-04-13T10:09:29.445Z,3.00
2023-04-13T10:11:57.045Z,3.30
2023-04-13T10:14:28.356Z,3.33
2023-04-13T10:17:16.898Z,3.08
2023-04-13T10:19:49.719Z,2.97
2023-04-13T10:25:07.050Z,2.67
2023-04-13T10:27:36.419Z,3.00
2023-04-13T10:30:23.824Z,2.67
2023-04-13T10:33:02.098Z,2.78
2023-04-13T10:36:35.461Z,3.10
2023-04-13T10:39:38.961Z,2.90
2023-04-13T10:42:10.452Z,3.60
2023-04-13T10:44:47.023Z,3.17
2023-04-13T10:47:15.256Z,3.05
2023-04-13T10:49:46.710Z,3.65
2023-04-13T10:52:13.802Z,2.60
2023-04-13T10:54:56.470Z,3.58
2023-04-13T10:57:23.059Z,2.60
2023-04-13T10:59:59.416Z,3.12
2023-04-13T11:02:31.944Z,3.00
2023-04-13T11:05:49.829Z,3.50
2023-04-13T11:09:16.105Z,3.20
2023-04-13T11:11:43.521Z,2.75
2023-04-13T11:14:10.104Z,2.90
2023-04-13T11:16:46.821Z,2.80
2023-04-13T11:19:16.549Z,2.28
2023-04-13T11:21:45.031Z,2.80
2023-04-13T11:24:11.980Z,2.78
2023-04-13T11:26:38.834Z,2.75
2023-04-13T11:29:09.170Z,2.55
2023-04-13T11:31:40.886Z,2.72
2023-04-13T11:34:09.742Z,2.85
2023-04-13T11:36:41.727Z,2.20
2023-04-13T11:39:10.882Z,2.80
2023-04-13T11:41:41.835Z,2.75
2023-04-13T11:44:08.533Z,2.83
2023-04-13T11:46:35.168Z,3.33
2023-04-13T11:49:02.398Z,2.37
2023-04-13T11:51:29.470Z,2.67
2023-04-13T11:56:58.318Z,3.22
2023-04-13T11:59:26.411Z,2.85
2023-04-13T12:02:01.578Z,3.35
2023-04-13T12:05:17.246Z,3.47
2023-04-13T12:08:40.612Z,3.20
2023-04-13T12:11:41.397Z,3.30
2023-04-13T12:14:46.036Z,3.00
2023-04-13T12:17:37.484Z,2.72
2023-04-13T12:20:03.326Z,2.97
2023-04-13T12:22:55.146Z,2.80
2023-04-13T12:28:00.243Z,2.87
2023-04-13T12:30:27.598Z,2.92
2023-04-13T12:32:55.873Z,2.95
2023-04-13T12:38:48.190Z,2.65
2023-04-13T12:41:14.781Z,3.03
2023-04-13T12:43:41.340Z,2.50
2023-04-13T12:46:07.910Z,2.50
2023-04-13T12:48:34.568Z,2.50
2023-04-13T12:51:01.180Z,2.12
2023-04-13T12:53:27.772Z,1.98
2023-04-13T12:55:54.596Z,2.12
2023-04-13T12:58:21.342Z,2.17
2023-04-13T13:00:48.498Z,2.12
2023-04-13T13:03:15.660Z,1.92
2023-04-13T13:05:42.895Z,2.08
2023-04-13T13:08:09.552Z,2.03
2023-04-13T13:10:39.959Z,1.92
2023-04-13T13:13:06.571Z,1.87
2023-04-13T13:15:34.165Z,1.92
2023-04-13T13:18:06.664Z,2.17
2023-04-13T13:20:33.377Z,1.87
2023-04-13T13:22:59.927Z,2.08
2023-04-13T13:25:26.991Z,2.30
2023-04-13T13:28:13.074Z,1.70
2023-04-13T13:30:40.667Z,1.60
2023-04-13T13:33:07.411Z,2.20
2023-04-13T13:35:34.782Z,1.98
2023-04-13T13:38:02.067Z,2.00
2023-04-13T13:40:28.925Z,1.87
2023-04-13T13:42:55.632Z,2.60
2023-04-13T13:45:22.385Z,2.00
2023-04-13T13:47:53.513Z,2.00
2023-04-13T13:50:23.824Z,1.60
2023-04-13T13:53:03.014Z,1.90
2023-04-13T13:55:31.038Z,1.50
2023-04-13T13:58:16.017Z,1.58
2023-04-13T14:00:42.611Z,2.47
2023-04-13T14:03:09.375Z,2.10
2023-04-13T14:05:37.445Z,2.62
2023-04-13T14:08:04.190Z,3.00
2023-04-13T14:10:30.823Z,3.22
2023-04-13T14:12:59.297Z,2.90
2023-04-13T14:15:25.951Z,2.15
2023-04-13T14:18:08.422Z,2.40
2023-04-13T14:20:40.695Z,2.55
2023-04-13T14:23:09.299Z,2.30
2023-04-13T14:25:36.725Z,2.17
2023-04-13T14:28:03.440Z,1.92
2023-04-13T14:30:30.313Z,2.40
2023-04-13T14:32:56.995Z,2.83
2023-04-13T14:35:24.142Z,2.00
2023-04-13T14:37:50.786Z,2.28
2023-04-13T14:40:21.687Z,1.92
2023-04-13T14:42:50.881Z,2.03
2023-04-13T14:45:17.705Z,1.90
2023-04-13T14:47:44.576Z,1.85
2023-04-13T14:50:11.886Z,2.20
2023-04-13T14:52:38.508Z,2.40
2023-04-13T14:55:05.634Z,3.58
2023-04-13T14:57:32.519Z,3.70
2023-04-13T14:59:59.170Z,3.50
2023-04-13T15:02:28.197Z,4.20
2023-04-13T15:04:55.933Z,3.62
2023-04-13T15:07:29.966Z,4.97
2023-04-13T15:09:58.072Z,4.82
2023-04-13T15:12:24.728Z,4.90
2023-04-13T15:14:51.305Z,4.62
2023-04-13T15:17:17.947Z,4.28
2023-04-13T15:19:44.556Z,4.97
2023-04-13T15:22:11.132Z,4.80
2023-04-13T15:24:37.744Z,4.22
2023-04-13T15:27:04.447Z,4.93
2023-04-13T15:29:31.285Z,4.55
2023-04-13T15:31:58.480Z,4.10
2023-04-13T15:34:25.187Z,4.60
2023-04-13T15:36:51.779Z,3.50
2023-04-13T15:39:18.364Z,3.72
2023-04-13T15:41:44.955Z,4.22
2023-04-13T15:44:11.512Z,4.18
2023-04-13T15:46:38.489Z,4.90
2023-04-13T15:49:05.109Z,4.37
2023-04-13T15:51:32.281Z,6.30
2023-04-13T15:53:58.922Z,6.40
2023-04-13T15:56:25.945Z,5.80
2023-04-13T15:58:52.543Z,6.78
2023-04-13T16:01:19.128Z,7.10
2023-04-13T16:03:49.366Z,6.75
2023-04-13T16:06:16.313Z,4.87
2023-04-13T16:08:43.191Z,4.43
2023-04-13T16:11:31.771Z,4.55
2023-04-13T16:14:07.160Z,5.22
2023-04-13T16:27:08.742Z,6.18
2023-04-13T16:29:44.620Z,5.65
2023-04-13T16:32:15.783Z,5.47
2023-04-13T16:34:42.905Z,5.80
2023-04-13T16:37:09.523Z,5.70
2023-04-13T16:39:36.133Z,5.70
2023-04-13T16:42:02.721Z,6.10
2023-04-13T16:44:29.353Z,5.70
2023-04-13T16:46:56.264Z,28.48
2023-04-13T16:49:22.890Z,32.20
2023-04-13T16:51:49.552Z,12.13
2023-04-13T16:54:17.884Z,42.85
2023-04-13T16:56:44.776Z,11.88
2023-04-13T16:59:11.592Z,15.07
2023-04-13T17:01:39.977Z,8.07
2023-04-13T17:04:06.775Z,7.60
2023-04-13T17:06:37.478Z,6.10
2023-04-13T17:09:05.358Z,6.03
2023-04-13T17:11:32.097Z,5.47
2023-04-13T17:13:58.723Z,5.65
2023-04-13T17:16:29.390Z,5.65
2023-04-13T17:18:56.832Z,5.85
2023-04-13T17:21:23.528Z,5.57
2023-04-13T17:23:50.106Z,5.12
2023-04-13T17:26:16.721Z,6.00
2023-04-13T17:28:43.298Z,7.70
2023-04-13T17:31:10.533Z,12.20
2023-04-13T17:33:37.155Z,13.25
2023-04-13T17:36:03.915Z,11.85
2023-04-13T17:38:30.557Z,11.60
2023-04-13T17:40:57.151Z,10.95
2023-04-13T17:43:23.710Z,11.18
2023-04-13T17:45:50.499Z,10.90
2023-04-13T17:48:17.157Z,9.27
2023-04-13T17:50:43.984Z,8.05
2023-04-13T17:53:11.317Z,9.40
2023-04-13T17:55:38.558Z,8.25
2023-04-13T17:58:05.834Z,9.45
2023-04-13T18:00:32.491Z,9.32
2023-04-13T18:02:59.199Z,8.90
2023-04-13T18:05:26.762Z,8.23
2023-04-13T18:07:53.339Z,8.88
2023-04-13T18:10:19.948Z,8.02
2023-04-13T18:12:46.815Z,8.05
2023-04-13T18:15:13.513Z,7.55
2023-04-13T18:17:40.925Z,7.80
2023-04-13T18:20:09.170Z,7.85
2023-04-13T18:22:36.119Z,7.10
2023-04-13T18:25:02.734Z,7.30
2023-04-13T18:27:29.381Z,5.93
2023-04-13T18:29:56.799Z,6.68
2023-04-13T18:32:23.603Z,6.65
2023-04-13T18:34:50.277Z,6.65
2023-04-13T18:37:17.124Z,6.72
2023-04-13T18:43:33.869Z,6.70
2023-04-13T18:46:01.332Z,6.43
2023-04-13T18:48:27.985Z,6.75
2023-04-13T18:50:54.578Z,7.68
2023-04-13T18:53:21.225Z,7.50
2023-04-13T18:55:52.341Z,6.87
2023-04-13T19:00:55.502Z,5.72
2023-04-13T19:03:22.727Z,6.12
2023-04-13T19:05:49.530Z,5.18
2023-04-13T19:08:16.101Z,6.85
2023-04-13T19:10:42.754Z,5.43
2023-04-13T19:13:09.411Z,5.45
2023-04-13T19:19:26.409Z,5.82
2023-04-13T19:21:54.238Z,7.22
2023-04-13T19:24:22.038Z,5.68
2023-04-13T19:26:49.246Z,5.75
2023-04-13T19:29:16.483Z,6.00
2023-04-13T19:31:45.129Z,6.68
2023-04-13T19:36:47.007Z,6.00
2023-04-13T19:39:13.647Z,6.15
2023-04-13T19:41:41.378Z,5.55
2023-04-13T19:48:05.750Z,5.53
2023-04-13T19:50:32.512Z,5.85
2023-04-13T19:52:59.180Z,6.43
2023-04-13T19:55:27.138Z,7.00
2023-04-13T19:57:54.409Z,6.87
2023-04-13T20:00:22.418Z,6.30
2023-04-13T20:02:50.957Z,6.60
2023-04-13T20:05:19.567Z,6.80
2023-04-13T20:07:46.302Z,6.93
2023-04-13T20:10:13.024Z,6.97
2023-04-13T20:12:39.749Z,7.40
2023-04-13T20:15:07.361Z,7.35
2023-04-13T20:18:13.018Z,7.53
2023-04-13T20:20:42.585Z,7.75
2023-04-13T20:23:09.633Z,7.20
2023-04-13T20:25:41.854Z,7.68
2023-04-13T20:35:06.942Z,8.07
2023-04-13T20:37:33.579Z,7.32
2023-04-13T20:40:00.751Z,7.25
2023-04-13T20:42:27.365Z,7.03
2023-04-13T20:44:57.648Z,6.80
2023-04-13T20:50:06.872Z,7.20
2023-04-13T20:52:33.790Z,7.05
2023-04-13T20:55:00.478Z,7.15
2023-04-13T21:01:57.971Z,7.18
2023-04-13T21:20:50.454Z,7.32
2023-04-13T21:23:17.302Z,6.82
2023-04-13T21:25:44.525Z,7.03
2023-04-13T21:28:55.399Z,7.30
2023-04-13T21:31:53.427Z,6.80
2023-04-13T21:34:20.194Z,6.90
2023-04-13T21:39:16.366Z,6.93
2023-04-13T21:41:42.944Z,6.87
2023-04-13T21:44:22.663Z,7.00
2023-04-13T21:47:24.233Z,6.75
2023-04-13T21:49:50.853Z,6.93
2023-04-13T21:52:17.438Z,7.20
2023-04-13T21:54:44.080Z,7.35
2023-04-13T22:01:12.919Z,5.68
2023-04-13T22:03:42.472Z,6.32
2023-04-13T22:06:10.947Z,5.97
2023-04-13T22:08:37.886Z,5.55
2023-04-13T22:11:04.743Z,5.60
2023-04-13T22:13:50.253Z,5.40
2023-04-13T22:16:38.337Z,5.30
2023-04-13T22:19:05.026Z,5.35
2023-04-13T22:21:34.725Z,5.10
2023-04-13T22:24:01.399Z,5.20
2023-04-13T22:27:18.370Z,5.57
2023-04-13T22:30:41.265Z,5.03
2023-04-13T22:33:20.973Z,6.05
2023-04-13T22:35:50.971Z,5.40
2023-04-13T22:38:18.688Z,5.50
2023-04-13T22:40:45.880Z,5.55
2023-04-13T22:43:13.194Z,5.25
2023-04-13T22:45:39.839Z,5.60
2023-04-13T22:48:30.644Z,5.45
2023-04-13T22:51:00.866Z,5.50
2023-04-13T22:53:28.070Z,5.20
2023-04-13T23:00:27.090Z,5.37
2023-04-13T23:02:56.021Z,6.28
2023-04-13T23:05:24.062Z,6.03
